Quick Links (Output Below):   Max & Min Temps   /   Climate Reports   /   Zone Forecasts
River Forecasts   /   Forestry Forecasts   /   Aviation Forecasts   /   Radars   /   Features

Terminal Aerodrome Forecast (Pine Bluff)

Pick a Site:
Arkadelphia | El Dorado | Fayetteville | Fort Smith | Harrison | Highfill | Hot Springs | Jonesboro
Little Rock | Monticello | Mountain Home | Pine Bluff | Texarkana
 Forecast 

KPBF 181733Z 1818/1918 35005KT P6SM VCTS SCT040CB BKN120
      TEMPO 1818/1822 VRB15G25KT 3SM TSRA BKN025CB
     FM190000 VRB03KT P6SM SCT120 BKN250
     FM190600 03003KT 4SM BR SCT250
     FM190900 03002KT 1SM BR SCT015
      TEMPO 1909/1912 BKN015
     FM191500 09006KT 6SM BR SCT015 BKN250=


 Latest METARs (Observations) 
How to Decode METARs
17Z KPBF 181653Z AUTO 31003KT 10SM FEW037 SCT075 24/21 A2995 RMK AO2
         SLP139 T02390206
         
16Z KPBF 181553Z AUTO 34008KT 10SM BKN037 BKN050 BKN065 24/21 A2996
         RMK AO2 TSB25E53 SLP141 T02440211
         
15Z KPBF 181453Z AUTO 35004KT 10SM BKN043 BKN055 25/21 A2996 RMK AO2
         SLP141 T02500211 53014
         
14Z KPBF 181353Z AUTO 13003KT 10SM CLR 23/21 A2994 RMK AO2 SLP134
         T02280211
         
13Z KPBF 181253Z AUTO 00000KT 8SM CLR 22/21 A2993 RMK AO2 SLP132
         T02170206 $
         
12Z KPBF 181153Z AUTO 02003KT 9SM CLR 21/20 A2992 RMK AO2 SLP127
         T02110200 10228 20206 53012 $
         
11Z KPBF 181053Z AUTO 00000KT 9SM CLR 21/20 A2990 RMK AO2 SLP121
         T02110200 $
         
10Z KPBF 180953Z AUTO 00000KT 9SM CLR 21/20 A2989 RMK AO2 SLP118
         T02110200 $
         
09Z KPBF 180853Z AUTO 13004KT 10SM CLR 22/20 A2988 RMK AO2 SLP115
         T02170200 $
         
08Z KPBF 180753Z AUTO 07003KT 9SM CLR 21/20 A2990 RMK AO2 SLP121
         T02110200
         
***** Today's Observations (Above) *****


Back to Main Page
http://www.srh.noaa.gov/lzk/qfcst.php

USA.gov is the U.S. government's official web portal to all federal, state and local government web resources and services.